Time;durP1;ratioP1;P1;durP2;ratioP2;P2;SDS_P1;SDS_P2;PMS_P1;PMS_P2;Temp;Humidity;BMP_temperature;BMP_pressure;BME280_temperature;BME280_humidity;BME280_pressure;Samples;Min_cycle;Max_cycle;Signal;HPM_P1;HPM_P2
2022/07/17 00:00:36;;;;;;;;;;;19.60;99.90;;;;;;5070574;28;19922;-65
2022/07/17 00:03:01;;;;;;;;;;;19.50;99.90;;;;;;5073413;28;20120;-64
2022/07/17 00:05:27;;;;;;;;;;;19.40;99.90;;;;;;5069783;28;19965;-65
2022/07/17 00:07:53;;;;;;;;;;;19.40;99.90;;;;;;5074973;28;19920;-64
2022/07/17 00:10:18;;;;;;;;;;;19.40;99.90;;;;;;5056184;28;19926;-64
2022/07/17 00:12:44;;;;;;;;;;;19.40;99.90;;;;;;5072481;28;20442;-64
2022/07/17 00:15:10;;;;;;;;;;;19.30;99.90;;;;;;5078695;28;19927;-64
2022/07/17 00:17:36;;;;;;;;;;;19.30;99.90;;;;;;5090396;28;19919;-65
2022/07/17 00:20:01;;;;;;;;;;;19.20;99.90;;;;;;5090183;28;20365;-65
2022/07/17 00:22:27;;;;;;;;;;;19.20;99.90;;;;;;5093607;28;19916;-64
2022/07/17 00:24:53;;;;;;;;;;;19.10;99.90;;;;;;5090673;28;19918;-65
2022/07/17 00:27:18;;;;;;;;;;;19.00;99.90;;;;;;5089250;28;19951;-65
2022/07/17 00:29:44;;;;;;;;;;;18.90;99.90;;;;;;5095456;28;19920;-65
2022/07/17 00:32:10;;;;;;;;;;;18.70;99.90;;;;;;5099625;28;19911;-65
2022/07/17 00:34:35;;;;;;;;;;;18.60;99.90;;;;;;5093673;28;19955;-63
2022/07/17 00:37:01;;;;;;;;;;;18.60;99.90;;;;;;5101480;28;20236;-65
2022/07/17 00:39:27;;;;;;;;;;;18.40;99.90;;;;;;5096692;28;19965;-65
2022/07/17 00:41:52;;;;;;;;;;;18.30;99.90;;;;;;5074630;28;19912;-66
2022/07/17 00:44:18;;;;;;;;;;;18.30;99.90;;;;;;5094980;28;20382;-64
2022/07/17 00:46:43;;;;;;;;;;;18.10;99.90;;;;;;5105514;28;19911;-64
2022/07/17 00:49:09;;;;;;;;;;;18.10;99.90;;;;;;5081453;28;19965;-65
2022/07/17 00:51:35;;;;;;;;;;;18.20;99.90;;;;;;5084718;28;20304;-65
2022/07/17 00:54:01;;;;;;;;;;;18.20;99.90;;;;;;5078702;28;19912;-65
2022/07/17 00:56:27;;;;;;;;;;;18.10;99.90;;;;;;5073748;28;19974;-65
2022/07/17 00:58:53;;;;;;;;;;;18.10;99.90;;;;;;5093628;28;19916;-65
2022/07/17 01:01:18;;;;;;;;;;;18.00;99.90;;;;;;5104118;28;20105;-65
2022/07/17 01:03:44;;;;;;;;;;;18.00;99.90;;;;;;5082933;28;19912;-65
2022/07/17 01:06:10;;;;;;;;;;;17.90;99.90;;;;;;5079909;28;19965;-64
2022/07/17 01:08:36;;;;;;;;;;;17.70;99.90;;;;;;5096846;28;19964;-64
2022/07/17 01:11:02;;;;;;;;;;;17.70;99.90;;;;;;5102037;28;19955;-65
2022/07/17 01:13:27;;;;;;;;;;;17.70;99.90;;;;;;5096027;28;20029;-65
2022/07/17 01:15:54;;;;;;;;;;;17.60;99.90;;;;;;5075333;28;19978;-65
2022/07/17 01:18:19;;;;;;;;;;;17.50;99.90;;;;;;5079942;28;19928;-65
2022/07/17 01:20:46;;;;;;;;;;;17.40;99.90;;;;;;5076376;28;19967;-65
2022/07/17 01:23:12;;;;;;;;;;;17.30;99.90;;;;;;5079693;28;20389;-64
2022/07/17 01:25:38;;;;;;;;;;;17.30;99.90;;;;;;5074123;28;19913;-65
2022/07/17 01:28:04;;;;;;;;;;;17.20;99.90;;;;;;5077611;28;19995;-64
2022/07/17 01:30:30;;;;;;;;;;;17.20;99.90;;;;;;5071657;28;20000;-64
2022/07/17 01:32:55;;;;;;;;;;;17.10;99.90;;;;;;5072113;28;20083;-65
2022/07/17 01:35:21;;;;;;;;;;;17.10;99.90;;;;;;5076771;28;19928;-65
2022/07/17 01:37:47;;;;;;;;;;;17.00;99.90;;;;;;5079401;28;19916;-64
2022/07/17 01:40:14;;;;;;;;;;;17.10;99.90;;;;;;5077416;28;19947;-65
2022/07/17 01:42:42;;;;;;;;;;;17.10;99.90;;;;;;5078362;28;19919;-65
2022/07/17 01:45:08;;;;;;;;;;;17.10;99.90;;;;;;5069907;28;19945;-65
2022/07/17 01:47:34;;;;;;;;;;;17.20;99.90;;;;;;5076846;28;19912;-64
2022/07/17 01:50:00;;;;;;;;;;;17.20;99.90;;;;;;5075238;28;19964;-64
2022/07/17 01:52:26;;;;;;;;;;;17.10;99.90;;;;;;5071930;28;19916;-64
2022/07/17 01:54:52;;;;;;;;;;;17.10;99.90;;;;;;5075788;28;19946;-65
2022/07/17 01:57:18;;;;;;;;;;;17.10;99.90;;;;;;5075586;28;19917;-65
2022/07/17 01:59:43;;;;;;;;;;;17.10;99.90;;;;;;5076729;28;19951;-65
2022/07/17 02:02:09;;;;;;;;;;;17.00;99.90;;;;;;5079406;28;19913;-65
2022/07/17 02:04:35;;;;;;;;;;;16.90;99.90;;;;;;5073558;28;19935;-65
2022/07/17 02:07:01;;;;;;;;;;;16.90;99.90;;;;;;5083494;28;19959;-65
2022/07/17 02:09:26;;;;;;;;;;;16.80;99.90;;;;;;5074007;28;19947;-65
2022/07/17 02:11:52;;;;;;;;;;;16.70;99.90;;;;;;5073038;28;19952;-65
2022/07/17 02:14:18;;;;;;;;;;;16.70;99.90;;;;;;5073532;28;19958;-65
2022/07/17 02:16:43;;;;;;;;;;;16.70;99.90;;;;;;5093174;28;19972;-65
2022/07/17 02:19:09;;;;;;;;;;;16.60;99.90;;;;;;5093653;28;19912;-65
2022/07/17 02:21:35;;;;;;;;;;;16.60;99.90;;;;;;5084541;28;20040;-65
2022/07/17 02:24:00;;;;;;;;;;;16.60;99.90;;;;;;5096466;28;19954;-65
2022/07/17 02:26:26;;;;;;;;;;;16.50;99.90;;;;;;5102664;28;20324;-64
2022/07/17 02:28:51;;;;;;;;;;;16.50;99.90;;;;;;5108153;28;20334;-65
2022/07/17 02:31:17;;;;;;;;;;;16.40;99.90;;;;;;5100298;28;19912;-65
2022/07/17 02:33:42;;;;;;;;;;;16.50;99.90;;;;;;5098325;28;19912;-65
2022/07/17 02:36:08;;;;;;;;;;;16.40;99.90;;;;;;5095883;28;19919;-64
2022/07/17 02:38:33;;;;;;;;;;;16.40;99.90;;;;;;5094692;28;19942;-65
2022/07/17 02:40:59;;;;;;;;;;;16.40;99.90;;;;;;5096202;28;19912;-65
2022/07/17 02:43:25;;;;;;;;;;;16.40;99.90;;;;;;5089587;28;20438;-65
2022/07/17 02:45:51;;;;;;;;;;;16.40;99.90;;;;;;5088242;28;20497;-66
2022/07/17 02:48:16;;;;;;;;;;;16.40;99.90;;;;;;5094317;28;19915;-65
2022/07/17 02:50:42;;;;;;;;;;;16.30;99.90;;;;;;5092787;28;20558;-64
2022/07/17 02:53:07;;;;;;;;;;;16.40;99.90;;;;;;5092778;28;20358;-65
2022/07/17 02:55:33;;;;;;;;;;;16.40;99.90;;;;;;5076922;28;19912;-65
2022/07/17 02:57:58;;;;;;;;;;;16.40;99.90;;;;;;5091455;28;20451;-64
2022/07/17 03:00:26;;;;;;;;;;;16.40;99.90;;;;;;5095233;28;20489;-65
2022/07/17 03:02:52;;;;;;;;;;;16.40;99.90;;;;;;5073629;28;20266;-65
2022/07/17 03:05:18;;;;;;;;;;;16.40;99.90;;;;;;5092153;28;19916;-64
2022/07/17 03:07:44;;;;;;;;;;;16.40;99.90;;;;;;5099154;28;19953;-64
2022/07/17 03:10:10;;;;;;;;;;;16.50;99.90;;;;;;5096627;28;20059;-65
2022/07/17 03:12:36;;;;;;;;;;;16.50;99.90;;;;;;5099757;28;19912;-65
2022/07/17 03:15:01;;;;;;;;;;;16.40;99.90;;;;;;5094203;28;19924;-65
2022/07/17 03:17:27;;;;;;;;;;;16.40;99.90;;;;;;5096572;28;20472;-65
2022/07/17 03:19:52;;;;;;;;;;;16.40;99.90;;;;;;5095129;28;20394;-65
2022/07/17 03:22:18;;;;;;;;;;;16.40;99.90;;;;;;5095406;28;20331;-64
2022/07/17 03:24:43;;;;;;;;;;;16.40;99.90;;;;;;5090697;28;19935;-65
2022/07/17 03:27:09;;;;;;;;;;;16.30;99.90;;;;;;5098200;28;19954;-65
2022/07/17 03:29:35;;;;;;;;;;;16.20;99.90;;;;;;5096196;28;19918;-65
2022/07/17 03:32:00;;;;;;;;;;;16.10;99.90;;;;;;5095483;28;19916;-65
2022/07/17 03:34:26;;;;;;;;;;;16.00;99.90;;;;;;5092309;28;19912;-64
2022/07/17 03:36:51;;;;;;;;;;;15.90;99.90;;;;;;5094545;28;20380;-64
2022/07/17 03:39:17;;;;;;;;;;;15.90;99.90;;;;;;5095445;28;20314;-65
2022/07/17 03:41:42;;;;;;;;;;;15.80;99.90;;;;;;5097251;28;20006;-65
2022/07/17 03:44:08;;;;;;;;;;;15.80;99.90;;;;;;5097591;28;20079;-66
2022/07/17 03:46:33;;;;;;;;;;;15.80;99.90;;;;;;5094199;28;20259;-64
2022/07/17 03:48:59;;;;;;;;;;;15.70;99.90;;;;;;5102749;28;19912;-65
2022/07/17 03:51:25;;;;;;;;;;;15.70;99.90;;;;;;5091677;28;19966;-65
2022/07/17 03:53:50;;;;;;;;;;;15.70;99.90;;;;;;5096305;28;19951;-64
2022/07/17 03:56:16;;;;;;;;;;;15.70;99.90;;;;;;5095156;28;20035;-65
2022/07/17 03:58:42;;;;;;;;;;;15.50;99.90;;;;;;5089639;28;19955;-64
2022/07/17 04:01:07;;;;;;;;;;;15.50;99.90;;;;;;5089481;28;19912;-66
2022/07/17 04:03:33;;;;;;;;;;;15.50;99.90;;;;;;5095698;28;20380;-65
2022/07/17 04:05:58;;;;;;;;;;;15.50;99.90;;;;;;5091157;28;20274;-65
2022/07/17 04:08:24;;;;;;;;;;;15.50;99.90;;;;;;5099184;28;19923;-64
2022/07/17 04:10:49;;;;;;;;;;;15.40;99.90;;;;;;5098210;28;20333;-64
2022/07/17 04:13:15;;;;;;;;;;;15.40;99.90;;;;;;5096135;28;20273;-64
2022/07/17 04:15:52;;;;;;;;;;;15.40;99.90;;;;;;5089044;28;20334;-65
2022/07/17 04:18:21;;;;;;;;;;;15.40;99.90;;;;;;5091493;28;20003;-65
2022/07/17 04:20:50;;;;;;;;;;;15.40;99.90;;;;;;5094995;28;19913;-65
2022/07/17 04:23:16;;;;;;;;;;;15.40;99.90;;;;;;5098578;28;19912;-65
2022/07/17 04:25:43;;;;;;;;;;;15.50;99.90;;;;;;5094878;28;19912;-65
2022/07/17 04:28:09;;;;;;;;;;;15.50;99.90;;;;;;5094596;28;19923;-64
2022/07/17 04:30:34;;;;;;;;;;;15.40;99.90;;;;;;5095527;28;19913;-64
2022/07/17 04:33:00;;;;;;;;;;;15.50;99.90;;;;;;5103389;28;20333;-64
2022/07/17 04:35:26;;;;;;;;;;;15.40;99.90;;;;;;5095276;28;20451;-64
2022/07/17 04:37:51;;;;;;;;;;;15.40;99.90;;;;;;5095619;28;19928;-65
2022/07/17 04:40:17;;;;;;;;;;;15.40;99.90;;;;;;5099258;28;20118;-67
2022/07/17 04:42:43;;;;;;;;;;;15.40;99.90;;;;;;5099639;28;19920;-65
2022/07/17 04:45:09;;;;;;;;;;;15.30;99.90;;;;;;5096443;28;19951;-65
2022/07/17 04:47:34;;;;;;;;;;;15.20;99.90;;;;;;5086251;28;20386;-65
2022/07/17 04:50:00;;;;;;;;;;;15.20;99.90;;;;;;5094258;28;19991;-66
2022/07/17 04:52:26;;;;;;;;;;;15.30;99.90;;;;;;5094210;28;20002;-65
2022/07/17 04:54:51;;;;;;;;;;;15.20;99.90;;;;;;5089378;28;19912;-65
2022/07/17 04:57:17;;;;;;;;;;;15.20;99.90;;;;;;5093909;28;20321;-65
2022/07/17 04:59:42;;;;;;;;;;;15.30;99.90;;;;;;5092757;28;21452;-65
2022/07/17 05:02:08;;;;;;;;;;;15.40;99.90;;;;;;5099668;28;19916;-65
2022/07/17 05:04:33;;;;;;;;;;;15.40;99.90;;;;;;5092085;28;19912;-64
2022/07/17 05:06:59;;;;;;;;;;;15.40;99.90;;;;;;5092091;28;19916;-64
2022/07/17 05:09:25;;;;;;;;;;;15.40;99.90;;;;;;5095575;28;19912;-65
2022/07/17 05:11:50;;;;;;;;;;;15.40;99.90;;;;;;5095967;28;20010;-65
2022/07/17 05:14:16;;;;;;;;;;;15.50;99.90;;;;;;5094889;28;20011;-65
2022/07/17 05:16:41;;;;;;;;;;;15.40;99.90;;;;;;5096665;28;19951;-65
2022/07/17 05:19:07;;;;;;;;;;;15.50;99.90;;;;;;5094467;28;19912;-65
2022/07/17 05:21:33;;;;;;;;;;;15.70;99.90;;;;;;5101407;28;19916;-65
2022/07/17 05:23:58;;;;;;;;;;;15.80;99.90;;;;;;5093744;28;19912;-65
2022/07/17 05:26:24;;;;;;;;;;;15.90;99.90;;;;;;5093797;28;20056;-65
2022/07/17 05:28:49;;;;;;;;;;;16.00;99.90;;;;;;5100616;28;19912;-65
2022/07/17 05:31:15;;;;;;;;;;;16.10;99.90;;;;;;5098307;28;20251;-66
2022/07/17 05:33:41;;;;;;;;;;;16.10;99.90;;;;;;5094525;28;19920;-64
2022/07/17 05:36:06;;;;;;;;;;;16.10;99.90;;;;;;5086516;28;19934;-64
2022/07/17 05:38:32;;;;;;;;;;;16.10;99.90;;;;;;5094972;28;19948;-65
2022/07/17 05:40:57;;;;;;;;;;;16.10;99.90;;;;;;5099454;28;19930;-65
2022/07/17 05:43:23;;;;;;;;;;;16.20;99.90;;;;;;5093341;28;19919;-65
2022/07/17 05:45:51;;;;;;;;;;;16.30;99.90;;;;;;5092750;28;20316;-65
2022/07/17 05:48:17;;;;;;;;;;;16.20;99.90;;;;;;5102031;28;19926;-65
2022/07/17 05:50:43;;;;;;;;;;;16.20;99.90;;;;;;5102961;28;19912;-65
2022/07/17 05:53:08;;;;;;;;;;;16.20;99.90;;;;;;5096590;28;19961;-65
2022/07/17 05:55:34;;;;;;;;;;;16.30;99.90;;;;;;5099137;28;19918;-65
2022/07/17 05:57:59;;;;;;;;;;;16.30;99.90;;;;;;5094182;28;20255;-65
2022/07/17 06:00:25;;;;;;;;;;;16.40;99.90;;;;;;5100822;28;19963;-65
2022/07/17 06:02:51;;;;;;;;;;;16.50;99.90;;;;;;5096252;28;19926;-65
2022/07/17 06:05:16;;;;;;;;;;;16.50;99.90;;;;;;5094666;28;19948;-64
2022/07/17 06:07:42;;;;;;;;;;;16.70;99.90;;;;;;5096795;28;19986;-65
2022/07/17 06:10:07;;;;;;;;;;;16.80;99.90;;;;;;5070474;28;19912;-64
2022/07/17 06:12:33;;;;;;;;;;;16.80;99.90;;;;;;5095364;28;20359;-65
2022/07/17 06:14:59;;;;;;;;;;;16.90;99.90;;;;;;5094788;28;19920;-65
2022/07/17 06:17:24;;;;;;;;;;;17.00;99.90;;;;;;5095720;28;19920;-65
2022/07/17 06:19:51;;;;;;;;;;;17.00;99.90;;;;;;5099197;28;19908;-65
2022/07/17 06:22:20;;;;;;;;;;;17.10;99.90;;;;;;5099089;28;20007;-65
2022/07/17 06:24:46;;;;;;;;;;;17.30;99.90;;;;;;5097580;28;19918;-65
2022/07/17 06:27:12;;;;;;;;;;;17.40;99.90;;;;;;5093414;28;20049;-65
2022/07/17 06:29:38;;;;;;;;;;;17.60;99.90;;;;;;5097914;28;19991;-65
2022/07/17 06:32:04;;;;;;;;;;;17.70;99.90;;;;;;5093813;28;19927;-65
2022/07/17 06:34:29;;;;;;;;;;;17.80;99.90;;;;;;5099080;28;19926;-65
2022/07/17 06:36:55;;;;;;;;;;;17.90;99.90;;;;;;5095859;28;19916;-64
2022/07/17 06:39:21;;;;;;;;;;;17.90;99.90;;;;;;5093990;28;19912;-65
2022/07/17 06:41:46;;;;;;;;;;;18.10;99.90;;;;;;5099844;28;19935;-66
2022/07/17 06:44:12;;;;;;;;;;;18.20;99.90;;;;;;5103360;28;19920;-66
2022/07/17 06:46:37;;;;;;;;;;;18.30;99.90;;;;;;5075631;28;19966;-66
2022/07/17 06:49:03;;;;;;;;;;;18.50;99.90;;;;;;5071790;28;19914;-65
2022/07/17 06:51:28;;;;;;;;;;;18.60;99.90;;;;;;5097030;28;19919;-65
2022/07/17 06:53:54;;;;;;;;;;;18.70;99.90;;;;;;5099331;28;20355;-66
2022/07/17 06:56:20;;;;;;;;;;;18.90;99.90;;;;;;5095441;28;19962;-66
2022/07/17 06:58:45;;;;;;;;;;;19.00;99.90;;;;;;5093920;28;20363;-66
2022/07/17 07:01:11;;;;;;;;;;;19.00;99.90;;;;;;5097158;28;20011;-65
2022/07/17 07:03:36;;;;;;;;;;;19.20;99.90;;;;;;5090504;28;19935;-66
2022/07/17 07:06:02;;;;;;;;;;;19.40;99.90;;;;;;5089450;28;20236;-65
2022/07/17 07:08:28;;;;;;;;;;;19.30;99.90;;;;;;5096265;28;19916;-66
2022/07/17 07:10:53;;;;;;;;;;;19.40;99.90;;;;;;5095333;28;20335;-66
2022/07/17 07:13:19;;;;;;;;;;;19.60;99.90;;;;;;5086683;28;19951;-66
2022/07/17 07:15:44;;;;;;;;;;;19.90;99.90;;;;;;5093638;28;20385;-66
2022/07/17 07:18:10;;;;;;;;;;;20.00;99.90;;;;;;5095016;28;19972;-65
2022/07/17 07:20:36;;;;;;;;;;;20.00;99.90;;;;;;5083009;28;19912;-66
2022/07/17 07:23:01;;;;;;;;;;;20.10;99.90;;;;;;5090816;28;19916;-65
2022/07/17 07:25:27;;;;;;;;;;;20.30;99.90;;;;;;5097640;28;19911;-65
2022/07/17 07:27:52;;;;;;;;;;;20.30;99.90;;;;;;5093546;28;19931;-65
2022/07/17 07:30:18;;;;;;;;;;;20.50;99.90;;;;;;5092933;28;19920;-66
2022/07/17 07:32:43;;;;;;;;;;;20.60;99.90;;;;;;5070468;28;19950;-65
2022/07/17 07:35:09;;;;;;;;;;;20.90;99.90;;;;;;5091758;28;19912;-65
2022/07/17 07:37:35;;;;;;;;;;;21.20;99.90;;;;;;5091216;28;19996;-65
2022/07/17 07:40:02;;;;;;;;;;;21.30;99.90;;;;;;5094653;28;20326;-65
2022/07/17 07:42:27;;;;;;;;;;;21.30;99.90;;;;;;5093044;28;20333;-66
2022/07/17 07:44:53;;;;;;;;;;;21.40;99.90;;;;;;5096965;28;19918;-66
2022/07/17 07:47:18;;;;;;;;;;;21.40;99.90;;;;;;5098137;28;19924;-64
2022/07/17 07:49:44;;;;;;;;;;;21.70;99.90;;;;;;5075276;28;19943;-64
2022/07/17 07:52:09;;;;;;;;;;;21.90;99.90;;;;;;5089594;28;20408;-65
2022/07/17 07:54:35;;;;;;;;;;;22.20;99.90;;;;;;5090993;28;20278;-66
2022/07/17 07:57:01;;;;;;;;;;;22.20;99.90;;;;;;5092900;28;19967;-65
2022/07/17 07:59:27;;;;;;;;;;;22.10;99.90;;;;;;5089795;28;19962;-64
2022/07/17 08:01:52;;;;;;;;;;;22.30;99.90;;;;;;5076082;28;19943;-65
2022/07/17 08:04:18;;;;;;;;;;;22.50;99.90;;;;;;5086721;28;20010;-66
2022/07/17 08:06:43;;;;;;;;;;;22.60;99.50;;;;;;5093202;28;20619;-65
2022/07/17 08:09:09;;;;;;;;;;;22.60;99.00;;;;;;5093388;28;19916;-64
2022/07/17 08:11:35;;;;;;;;;;;22.80;98.40;;;;;;5086385;28;20304;-65
2022/07/17 08:14:00;;;;;;;;;;;22.90;97.10;;;;;;5098827;28;19923;-66
2022/07/17 08:16:26;;;;;;;;;;;23.00;96.20;;;;;;5087760;28;20132;-65
2022/07/17 08:18:51;;;;;;;;;;;23.10;95.80;;;;;;5090689;28;19993;-65
2022/07/17 08:21:17;;;;;;;;;;;23.20;94.50;;;;;;5091763;28;19945;-64
2022/07/17 08:23:42;;;;;;;;;;;23.30;93.80;;;;;;5091921;28;19920;-65
2022/07/17 08:26:08;;;;;;;;;;;23.40;93.60;;;;;;5093738;28;19912;-64
2022/07/17 08:28:33;;;;;;;;;;;23.60;93.10;;;;;;5091667;28;19912;-65
2022/07/17 08:30:59;;;;;;;;;;;23.70;91.70;;;;;;5092437;28;19916;-65
2022/07/17 08:33:24;;;;;;;;;;;23.80;92.30;;;;;;5092363;28;20255;-65
2022/07/17 08:35:50;;;;;;;;;;;24.00;92.50;;;;;;5067335;28;20378;-65
2022/07/17 08:38:16;;;;;;;;;;;24.00;90.50;;;;;;5091275;28;20371;-66
2022/07/17 08:40:43;;;;;;;;;;;24.10;90.00;;;;;;5086480;28;19924;-65
2022/07/17 08:43:09;;;;;;;;;;;24.20;90.00;;;;;;5101158;28;19918;-65
2022/07/17 08:45:35;;;;;;;;;;;24.30;89.00;;;;;;5085811;28;19920;-65
2022/07/17 08:48:01;;;;;;;;;;;24.50;88.10;;;;;;5092860;28;20266;-65
2022/07/17 08:50:34;;;;;;;;;;;24.70;88.40;;;;;;5092170;28;20260;-65
2022/07/17 08:53:01;;;;;;;;;;;24.80;86.20;;;;;;5099942;28;19919;-65
2022/07/17 08:55:27;;;;;;;;;;;25.00;85.00;;;;;;5077582;28;19991;-65
2022/07/17 08:57:53;;;;;;;;;;;25.00;84.60;;;;;;5089274;28;19941;-65
2022/07/17 09:00:20;;;;;;;;;;;25.00;84.40;;;;;;5094147;28;19916;-65
2022/07/17 09:02:57;;;;;;;;;;;25.10;84.10;;;;;;5088166;28;19916;-65
2022/07/17 09:05:24;;;;;;;;;;;25.20;84.80;;;;;;5086075;28;20061;-65
2022/07/17 09:07:49;;;;;;;;;;;25.40;79.90;;;;;;5075705;28;20362;-65
2022/07/17 09:10:15;;;;;;;;;;;25.30;83.50;;;;;;5092492;28;19912;-65
2022/07/17 09:12:41;;;;;;;;;;;25.20;78.50;;;;;;5090560;28;19937;-64
2022/07/17 09:15:16;;;;;;;;;;;25.20;81.10;;;;;;5086572;28;19919;-65
2022/07/17 09:17:52;;;;;;;;;;;25.40;75.00;;;;;;5072579;28;19923;-65
2022/07/17 09:20:19;;;;;;;;;;;25.50;73.20;;;;;;5090399;28;19920;-65
2022/07/17 09:22:55;;;;;;;;;;;25.50;72.90;;;;;;5090938;28;19994;-66
2022/07/17 09:25:30;;;;;;;;;;;25.60;75.60;;;;;;5088498;28;19920;-66
2022/07/17 09:27:56;;;;;;;;;;;25.50;73.50;;;;;;5094915;28;19920;-65
2022/07/17 09:30:22;;;;;;;;;;;25.50;74.50;;;;;;5091690;28;19940;-65
2022/07/17 09:32:48;;;;;;;;;;;25.60;74.80;;;;;;5091630;28;19987;-64
2022/07/17 09:35:15;;;;;;;;;;;25.70;71.60;;;;;;5100777;28;19920;-64
2022/07/17 09:37:41;;;;;;;;;;;25.70;72.80;;;;;;5078281;28;19915;-65
2022/07/17 09:40:10;;;;;;;;;;;25.90;72.70;;;;;;5098747;28;19927;-65
2022/07/17 09:42:36;;;;;;;;;;;25.80;72.30;;;;;;5095439;28;19919;-66
2022/07/17 09:45:06;;;;;;;;;;;25.90;71.20;;;;;;5100810;28;20006;-65
2022/07/17 09:47:36;;;;;;;;;;;26.00;69.30;;;;;;5104987;28;19924;-66
2022/07/17 09:50:03;;;;;;;;;;;26.00;68.90;;;;;;5097496;28;19923;-64
2022/07/17 09:52:29;;;;;;;;;;;26.00;71.70;;;;;;5094685;28;20002;-65
2022/07/17 09:54:55;;;;;;;;;;;25.90;70.20;;;;;;5106356;28;19912;-66
2022/07/17 09:57:25;;;;;;;;;;;26.30;66.80;;;;;;5103689;28;19916;-65
2022/07/17 09:59:52;;;;;;;;;;;26.40;66.30;;;;;;5098980;28;19915;-65
2022/07/17 10:02:19;;;;;;;;;;;26.30;64.60;;;;;;5095350;28;19934;-65
2022/07/17 10:04:46;;;;;;;;;;;26.30;67.80;;;;;;5093942;28;19993;-65
2022/07/17 10:07:11;;;;;;;;;;;26.40;66.40;;;;;;5100162;28;20306;-65
2022/07/17 10:09:38;;;;;;;;;;;26.50;68.30;;;;;;5075597;28;19923;-64
2022/07/17 10:12:05;;;;;;;;;;;26.60;64.00;;;;;;5096485;28;19908;-67
2022/07/17 10:14:30;;;;;;;;;;;26.60;64.20;;;;;;5083473;28;20053;-66
2022/07/17 10:17:05;;;;;;;;;;;26.60;64.60;;;;;;5102178;28;19985;-65
2022/07/17 10:19:32;;;;;;;;;;;26.70;66.80;;;;;;5099022;28;20000;-64
2022/07/17 10:21:58;;;;;;;;;;;26.90;65.50;;;;;;5074059;28;20283;-65
2022/07/17 10:24:25;;;;;;;;;;;26.70;65.40;;;;;;5093434;28;19927;-64
2022/07/17 10:26:51;;;;;;;;;;;27.00;62.40;;;;;;5094193;28;19943;-65
2022/07/17 10:29:30;;;;;;;;;;;27.10;63.80;;;;;;5102136;28;19962;-65
2022/07/17 10:31:56;;;;;;;;;;;27.30;62.50;;;;;;5093706;28;19912;-66
2022/07/17 10:34:36;;;;;;;;;;;27.30;61.30;;;;;;5093061;28;19912;-65
2022/07/17 10:37:02;;;;;;;;;;;27.40;62.10;;;;;;5076249;28;19920;-64
2022/07/17 10:39:27;;;;;;;;;;;27.30;60.70;;;;;;5090668;28;19935;-64
2022/07/17 10:41:58;;;;;;;;;;;27.30;60.60;;;;;;5099494;28;19965;-65
2022/07/17 10:44:25;;;;;;;;;;;27.40;58.60;;;;;;5097509;28;19938;-65
2022/07/17 10:46:50;;;;;;;;;;;27.20;57.30;;;;;;5094726;28;20440;-66
2022/07/17 10:49:16;;;;;;;;;;;27.30;57.50;;;;;;5086612;28;20018;-65
2022/07/17 10:51:41;;;;;;;;;;;27.50;55.70;;;;;;5094574;28;20049;-64
2022/07/17 10:54:07;;;;;;;;;;;27.60;55.00;;;;;;5100084;28;19912;-66
2022/07/17 10:56:35;;;;;;;;;;;27.60;54.40;;;;;;5098623;28;20411;-65
2022/07/17 10:59:01;;;;;;;;;;;27.70;54.10;;;;;;5090237;28;19912;-65
2022/07/17 11:01:27;;;;;;;;;;;27.80;54.00;;;;;;5091715;28;19920;-67
2022/07/17 11:03:57;;;;;;;;;;;27.80;53.90;;;;;;5090471;28;20291;-66
2022/07/17 11:06:25;;;;;;;;;;;27.90;53.00;;;;;;5087605;28;20101;-65
2022/07/17 11:08:50;;;;;;;;;;;28.00;52.30;;;;;;5095611;28;20011;-65
2022/07/17 11:11:17;;;;;;;;;;;27.90;53.60;;;;;;5093500;28;20088;-66
2022/07/17 11:13:42;;;;;;;;;;;28.00;52.80;;;;;;5095296;28;19912;-65
2022/07/17 11:16:08;;;;;;;;;;;28.10;52.90;;;;;;5082924;28;19919;-66
2022/07/17 11:18:34;;;;;;;;;;;28.10;51.90;;;;;;5094782;28;19949;-66
2022/07/17 11:21:00;;;;;;;;;;;28.20;51.50;;;;;;5090938;28;19922;-66
2022/07/17 11:23:27;;;;;;;;;;;28.30;50.80;;;;;;5074492;28;19916;-65
2022/07/17 11:25:54;;;;;;;;;;;28.30;51.30;;;;;;5077486;28;19919;-65
2022/07/17 11:28:28;;;;;;;;;;;28.20;50.00;;;;;;5077959;28;19951;-65
2022/07/17 11:30:54;;;;;;;;;;;28.40;50.00;;;;;;5090302;28;19986;-65
2022/07/17 11:33:20;;;;;;;;;;;28.50;49.40;;;;;;5101646;28;19954;-65
2022/07/17 11:35:48;;;;;;;;;;;28.40;49.00;;;;;;5104321;28;19927;-65
2022/07/17 11:38:14;;;;;;;;;;;28.30;50.50;;;;;;5094031;28;20286;-65
2022/07/17 11:40:49;;;;;;;;;;;28.40;48.70;;;;;;5097114;28;19912;-65
2022/07/17 11:43:15;;;;;;;;;;;28.40;48.80;;;;;;5095095;28;19912;-65
2022/07/17 11:45:44;;;;;;;;;;;28.40;48.20;;;;;;5073816;28;20392;-65
2022/07/17 11:48:09;;;;;;;;;;;28.40;48.90;;;;;;5095117;28;20026;-65
2022/07/17 11:50:35;;;;;;;;;;;28.40;50.00;;;;;;5099824;28;19912;-65
2022/07/17 11:53:02;;;;;;;;;;;28.40;49.70;;;;;;5099139;28;20263;-65
2022/07/17 11:55:37;;;;;;;;;;;28.40;49.10;;;;;;5092023;28;19923;-64
2022/07/17 11:58:03;;;;;;;;;;;28.40;49.40;;;;;;5089849;28;20267;-65
2022/07/17 12:00:29;;;;;;;;;;;28.60;50.20;;;;;;5072381;28;20271;-65
2022/07/17 12:03:13;;;;;;;;;;;28.60;48.70;;;;;;5095008;28;19966;-65
2022/07/17 12:05:38;;;;;;;;;;;28.70;47.60;;;;;;5089482;28;20363;-65
2022/07/17 12:08:07;;;;;;;;;;;28.80;52.10;;;;;;5090227;28;19923;-65
2022/07/17 12:10:33;;;;;;;;;;;28.70;50.10;;;;;;5093622;28;19959;-65
2022/07/17 12:13:00;;;;;;;;;;;28.40;50.00;;;;;;5080215;28;20436;-66
2022/07/17 12:15:36;;;;;;;;;;;28.70;47.20;;;;;;5097119;28;20400;-65
2022/07/17 12:18:03;;;;;;;;;;;28.80;46.80;;;;;;5096642;28;20330;-65
2022/07/17 12:20:45;;;;;;;;;;;29.10;47.10;;;;;;5101224;28;20326;-65
2022/07/17 12:23:26;;;;;;;;;;;29.10;46.50;;;;;;5094130;28;19912;-65
2022/07/17 12:26:02;;;;;;;;;;;29.20;46.20;;;;;;5091749;28;19934;-65
2022/07/17 12:28:27;;;;;;;;;;;29.20;46.50;;;;;;5093578;28;20266;-66
2022/07/17 12:30:53;;;;;;;;;;;29.40;44.60;;;;;;5092886;28;19911;-65
2022/07/17 12:33:18;;;;;;;;;;;29.30;44.40;;;;;;5098523;28;20853;-65
2022/07/17 12:35:44;;;;;;;;;;;29.10;44.00;;;;;;5091680;28;19933;-65
2022/07/17 12:38:10;;;;;;;;;;;29.10;44.90;;;;;;5088136;28;20430;-65
2022/07/17 12:40:35;;;;;;;;;;;29.30;44.20;;;;;;5072945;28;19923;-65
2022/07/17 12:43:01;;;;;;;;;;;29.30;43.80;;;;;;5097967;28;19953;-65
2022/07/17 12:45:27;;;;;;;;;;;29.30;43.20;;;;;;5090763;28;19946;-65
2022/07/17 12:47:53;;;;;;;;;;;29.40;43.90;;;;;;5096934;28;19964;-66
2022/07/17 12:50:19;;;;;;;;;;;29.20;43.30;;;;;;5093712;28;19946;-65
2022/07/17 12:52:44;;;;;;;;;;;29.00;43.70;;;;;;5089263;28;20334;-65
2022/07/17 12:55:11;;;;;;;;;;;29.00;44.40;;;;;;5091764;28;19959;-65
2022/07/17 12:57:36;;;;;;;;;;;29.20;44.70;;;;;;5091958;28;19923;-64
2022/07/17 13:00:03;;;;;;;;;;;29.30;45.00;;;;;;5091592;28;20399;-65
2022/07/17 13:02:28;;;;;;;;;;;29.10;44.50;;;;;;5098982;28;19980;-65
2022/07/17 13:04:54;;;;;;;;;;;29.10;42.90;;;;;;5092358;28;19916;-65
2022/07/17 13:07:19;;;;;;;;;;;29.10;42.90;;;;;;5091357;28;19912;-65
2022/07/17 13:09:45;;;;;;;;;;;29.20;43.80;;;;;;5094778;28;20369;-66
2022/07/17 13:12:10;;;;;;;;;;;29.30;43.90;;;;;;5097371;28;19916;-65
2022/07/17 13:14:36;;;;;;;;;;;29.20;43.60;;;;;;5089529;28;20482;-65
2022/07/17 13:17:02;;;;;;;;;;;29.30;43.10;;;;;;5090935;28;19931;-65
2022/07/17 13:19:28;;;;;;;;;;;29.30;43.80;;;;;;5096197;28;20002;-66
2022/07/17 13:21:54;;;;;;;;;;;29.70;44.10;;;;;;5096392;28;19912;-65
2022/07/17 13:24:20;;;;;;;;;;;29.90;43.50;;;;;;5092489;28;19977;-64
2022/07/17 13:26:46;;;;;;;;;;;29.90;44.60;;;;;;5100632;28;19916;-65
2022/07/17 13:29:11;;;;;;;;;;;29.90;44.70;;;;;;5082158;28;19962;-64
2022/07/17 13:31:37;;;;;;;;;;;29.80;47.10;;;;;;5095877;28;19934;-64
2022/07/17 13:34:03;;;;;;;;;;;29.90;46.20;;;;;;5100460;28;19965;-66
2022/07/17 13:36:28;;;;;;;;;;;29.70;45.00;;;;;;5094394;28;19916;-64
2022/07/17 13:38:54;;;;;;;;;;;29.50;46.00;;;;;;5091093;28;19912;-65
2022/07/17 13:41:19;;;;;;;;;;;29.30;46.90;;;;;;5092143;28;19920;-65
2022/07/17 13:43:45;;;;;;;;;;;29.30;43.90;;;;;;5090753;28;19912;-65
2022/07/17 13:46:11;;;;;;;;;;;29.60;44.80;;;;;;5081179;28;20143;-64
2022/07/17 13:48:36;;;;;;;;;;;29.50;44.50;;;;;;5091057;28;20923;-65
2022/07/17 13:51:02;;;;;;;;;;;29.40;45.30;;;;;;5088088;28;19912;-65
2022/07/17 13:53:29;;;;;;;;;;;29.40;43.40;;;;;;5089434;28;19965;-64
2022/07/17 13:55:54;;;;;;;;;;;29.30;44.60;;;;;;5087288;28;19912;-65
2022/07/17 13:58:20;;;;;;;;;;;29.40;46.10;;;;;;5097076;28;20269;-65
2022/07/17 14:00:46;;;;;;;;;;;29.40;46.50;;;;;;5087646;28;20358;-64
2022/07/17 14:03:11;;;;;;;;;;;29.40;46.50;;;;;;5090781;28;21135;-65
2022/07/17 14:05:37;;;;;;;;;;;29.40;44.80;;;;;;5088865;28;19912;-66
2022/07/17 14:08:02;;;;;;;;;;;29.40;44.30;;;;;;5093074;28;19918;-65
2022/07/17 14:10:28;;;;;;;;;;;29.50;44.10;;;;;;5096628;28;19911;-65